createdAt,value
2018-09-10T00:00:26.950Z,58.91
2018-09-10T00:01:31.126Z,59.10
2018-09-10T00:02:36.153Z,59.22
2018-09-10T00:03:40.294Z,59.24
2018-09-10T00:04:44.499Z,58.68
2018-09-10T00:05:48.682Z,58.90
2018-09-10T00:06:52.922Z,58.82
2018-09-10T00:07:57.098Z,59.09
2018-09-10T00:09:01.397Z,58.55
2018-09-10T00:10:05.621Z,58.95
2018-09-10T00:11:09.997Z,58.33
2018-09-10T00:12:14.180Z,59.00
2018-09-10T00:13:18.403Z,58.88
2018-09-10T00:14:22.552Z,58.86
2018-09-10T00:15:26.914Z,58.85
2018-09-10T00:16:31.038Z,58.30
2018-09-10T00:17:35.224Z,58.39
2018-09-10T00:18:39.398Z,58.38
2018-09-10T00:19:43.539Z,58.53
2018-09-10T00:20:47.679Z,58.19
2018-09-10T00:21:51.851Z,58.25
2018-09-10T00:22:56.057Z,58.16
2018-09-10T00:24:00.336Z,57.58
2018-09-10T00:25:04.615Z,58.37
2018-09-10T00:26:08.750Z,58.33
2018-09-10T00:27:12.881Z,58.13
2018-09-10T00:28:20.693Z,57.99
2018-09-10T00:29:26.151Z,58.26
2018-09-10T00:30:33.677Z,57.99
2018-09-10T00:31:37.824Z,57.97
2018-09-10T00:32:42.082Z,57.75
2018-09-10T00:33:46.557Z,58.25
2018-09-10T00:34:50.723Z,58.53
2018-09-10T00:35:54.943Z,57.65
2018-09-10T00:36:59.350Z,58.47
2018-09-10T00:38:03.511Z,57.80
2018-09-10T00:39:10.867Z,57.62
2018-09-10T00:40:15.383Z,58.06
2018-09-10T00:41:19.540Z,58.60
2018-09-10T00:42:23.690Z,58.38
2018-09-10T00:43:27.826Z,58.60
2018-09-10T00:44:32.190Z,58.31
2018-09-10T00:45:36.345Z,57.96
2018-09-10T00:46:40.518Z,58.14
2018-09-10T00:47:44.980Z,58.22
2018-09-10T00:48:49.097Z,57.95
2018-09-10T00:49:53.287Z,57.74
2018-09-10T00:50:57.816Z,57.71
2018-09-10T00:52:01.977Z,58.23
2018-09-10T00:53:06.119Z,58.23
2018-09-10T00:54:12.634Z,58.37
2018-09-10T00:55:16.848Z,58.34
2018-09-10T00:56:21.041Z,57.83
2018-09-10T00:57:25.222Z,58.04
2018-09-10T00:58:29.740Z,58.25
2018-09-10T00:59:33.904Z,58.57
2018-09-10T01:00:38.173Z,58.07
2018-09-10T01:01:42.686Z,57.85
2018-09-10T01:02:46.835Z,57.92
2018-09-10T01:03:51.034Z,57.92
2018-09-10T01:04:55.213Z,57.89
2018-09-10T01:05:59.506Z,58.38
2018-09-10T01:07:03.673Z,58.08
2018-09-10T01:08:07.905Z,57.80
2018-09-10T01:09:12.073Z,58.26
2018-09-10T01:10:16.370Z,57.41
2018-09-10T01:11:20.580Z,57.46
2018-09-10T01:12:24.841Z,57.60
2018-09-10T01:13:28.973Z,57.83
2018-09-10T01:14:33.286Z,57.42
2018-09-10T01:15:37.474Z,57.85
2018-09-10T01:16:41.671Z,57.70
2018-09-10T01:17:45.840Z,57.46
2018-09-10T01:18:50.158Z,57.45
2018-09-10T01:19:54.751Z,58.36
2018-09-10T01:20:59.094Z,58.26
2018-09-10T01:22:03.311Z,57.69
2018-09-10T01:23:07.434Z,57.66
2018-09-10T01:24:11.631Z,57.96
2018-09-10T01:25:15.850Z,57.96
2018-09-10T01:26:20.035Z,57.69
2018-09-10T01:27:24.288Z,57.87
2018-09-10T01:28:28.438Z,58.49
2018-09-10T01:29:32.648Z,58.48
2018-09-10T01:30:36.830Z,58.29
2018-09-10T01:31:41.329Z,57.96
2018-09-10T01:32:47.695Z,58.32
2018-09-10T01:33:57.134Z,58.50
2018-09-10T01:35:06.561Z,57.92
2018-09-10T01:36:10.727Z,58.31
2018-09-10T01:37:14.988Z,58.81
2018-09-10T01:38:19.149Z,58.47
2018-09-10T01:39:23.334Z,58.75
2018-09-10T01:40:27.500Z,58.98
2018-09-10T01:41:31.689Z,59.38
2018-09-10T01:42:35.876Z,59.27
2018-09-10T01:43:40.107Z,59.16
2018-09-10T01:44:44.253Z,59.06
2018-09-10T01:45:51.096Z,59.68
2018-09-10T01:46:55.236Z,59.83
2018-09-10T01:47:59.397Z,59.83
2018-09-10T01:49:03.629Z,60.06
2018-09-10T01:50:07.852Z,60.45
2018-09-10T01:51:12.043Z,60.10
2018-09-10T01:52:16.232Z,60.33
2018-09-10T01:53:20.506Z,60.20
2018-09-10T01:54:24.813Z,60.66
2018-09-10T01:55:28.982Z,60.89
2018-09-10T01:56:33.224Z,61.00
2018-09-10T01:57:37.350Z,60.54
2018-09-10T01:58:41.700Z,61.15
2018-09-10T01:59:45.886Z,60.71
2018-09-10T02:00:50.555Z,60.36
2018-09-10T02:01:54.703Z,61.12
2018-09-10T02:02:58.868Z,60.54
2018-09-10T02:04:03.052Z,61.08
2018-09-10T02:05:07.580Z,60.79
2018-09-10T02:06:11.880Z,61.12
2018-09-10T02:07:16.042Z,61.16
2018-09-10T02:08:20.191Z,61.90
2018-09-10T02:09:24.812Z,61.75
2018-09-10T02:10:29.032Z,62.07
2018-09-10T02:11:33.202Z,61.38
2018-09-10T02:12:37.443Z,61.50
2018-09-10T02:13:41.806Z,61.50
2018-09-10T02:14:45.967Z,61.64
2018-09-10T02:15:51.963Z,62.08
2018-09-10T02:16:56.154Z,62.57
2018-09-10T02:18:00.400Z,62.45
2018-09-10T02:19:04.602Z,62.58
2018-09-10T02:20:08.803Z,62.65
2018-09-10T02:21:13.042Z,62.97
2018-09-10T02:22:17.259Z,62.34
2018-09-10T02:23:22.346Z,62.38
2018-09-10T02:24:26.681Z,62.54
2018-09-10T02:25:30.960Z,62.55
2018-09-10T02:26:35.218Z,61.82
2018-09-10T02:27:39.509Z,62.71
2018-09-10T02:28:43.679Z,62.64
2018-09-10T02:29:47.839Z,62.41
2018-09-10T02:30:51.997Z,62.61
2018-09-10T02:31:56.206Z,62.61
2018-09-10T02:33:00.499Z,61.95
2018-09-10T02:34:04.704Z,62.19
2018-09-10T02:35:09.001Z,61.56
2018-09-10T02:36:13.164Z,62.05
2018-09-10T02:37:17.626Z,62.22
2018-09-10T02:38:21.807Z,61.81
2018-09-10T02:39:26.004Z,62.66
2018-09-10T02:40:30.447Z,62.52
2018-09-10T02:41:39.831Z,62.38
2018-09-10T02:42:44.036Z,61.93
2018-09-10T02:43:48.310Z,62.14
2018-09-10T02:44:52.491Z,61.85
2018-09-10T02:45:56.742Z,61.93
2018-09-10T02:47:00.901Z,62.10
2018-09-10T02:48:05.311Z,61.89
2018-09-10T02:49:09.494Z,61.97
2018-09-10T02:50:13.698Z,62.06
2018-09-10T02:51:17.874Z,62.27
2018-09-10T02:52:22.253Z,62.81
2018-09-10T02:53:26.919Z,62.62
2018-09-10T02:54:31.176Z,62.56
2018-09-10T02:55:35.333Z,62.30
2018-09-10T02:56:39.483Z,62.85
2018-09-10T02:57:43.808Z,62.49
2018-09-10T02:58:48.019Z,62.35
2018-09-10T02:59:52.180Z,62.64
2018-09-10T03:00:56.385Z,62.34
2018-09-10T03:02:00.534Z,62.99
2018-09-10T03:03:04.743Z,62.72
2018-09-10T03:04:08.943Z,62.20
2018-09-10T03:05:13.131Z,62.90
2018-09-10T03:06:17.555Z,62.56
2018-09-10T03:07:21.746Z,63.05
2018-09-10T03:08:25.874Z,62.51
2018-09-10T03:09:30.232Z,62.86
2018-09-10T03:10:34.724Z,62.82
2018-09-10T03:11:38.866Z,63.47
2018-09-10T03:12:43.030Z,63.01
2018-09-10T03:13:47.549Z,63.42
2018-09-10T03:14:51.770Z,63.17
2018-09-10T03:15:55.975Z,62.50
2018-09-10T03:17:00.115Z,62.45
2018-09-10T03:18:04.413Z,62.94
2018-09-10T03:19:08.571Z,62.72
2018-09-10T03:20:12.801Z,62.28
2018-09-10T03:21:17.087Z,62.32
2018-09-10T03:22:21.241Z,62.12
2018-09-10T03:23:25.397Z,62.61
2018-09-10T03:24:29.783Z,62.88
2018-09-10T03:25:33.971Z,62.72
2018-09-10T03:26:38.138Z,62.40
2018-09-10T03:27:42.266Z,63.02
2018-09-10T03:28:46.420Z,63.10
2018-09-10T03:29:50.582Z,62.82
2018-09-10T03:30:54.813Z,62.62
2018-09-10T03:31:58.959Z,62.81
2018-09-10T03:33:03.181Z,62.94
2018-09-10T03:34:07.358Z,63.18
2018-09-10T03:35:11.546Z,62.37
2018-09-10T03:36:15.713Z,62.51
2018-09-10T03:37:20.030Z,63.27
2018-09-10T03:38:25.227Z,62.73
2018-09-10T03:39:29.818Z,63.12
2018-09-10T03:40:34.104Z,63.00
2018-09-10T03:41:38.294Z,62.83
2018-09-10T03:42:42.537Z,63.14
2018-09-10T03:43:46.693Z,63.07
2018-09-10T03:44:50.948Z,63.00
2018-09-10T03:45:55.125Z,63.52
2018-09-10T03:46:59.360Z,63.09
2018-09-10T03:48:03.526Z,62.75
2018-09-10T03:49:07.769Z,62.53
2018-09-10T03:50:11.952Z,62.81
2018-09-10T03:51:16.162Z,62.94
2018-09-10T03:52:20.475Z,62.44
2018-09-10T03:53:24.648Z,62.73
2018-09-10T03:54:28.796Z,62.43
2018-09-10T03:55:33.007Z,62.79
2018-09-10T03:56:37.202Z,62.19
2018-09-10T03:57:41.363Z,62.55
2018-09-10T03:58:45.751Z,62.81
2018-09-10T03:59:50.022Z,61.90
2018-09-10T04:00:54.155Z,61.86
2018-09-10T04:01:58.637Z,61.96
2018-09-10T04:03:02.789Z,62.16
2018-09-10T04:04:07.149Z,61.24
2018-09-10T04:05:11.355Z,61.34
2018-09-10T04:06:15.723Z,61.15
2018-09-10T04:07:19.866Z,61.56
2018-09-10T04:08:23.997Z,60.77
2018-09-10T04:09:28.175Z,60.84
2018-09-10T04:10:32.349Z,60.87
2018-09-10T04:11:36.560Z,60.83
2018-09-10T04:12:40.895Z,60.91
2018-09-10T04:13:45.065Z,60.79
2018-09-10T04:14:49.256Z,60.31
2018-09-10T04:15:53.610Z,60.05
2018-09-10T04:16:57.738Z,60.20
2018-09-10T04:18:01.894Z,59.88
2018-09-10T04:19:06.214Z,59.70
2018-09-10T04:20:11.250Z,60.21
2018-09-10T04:21:15.450Z,59.79
2018-09-10T04:22:19.661Z,60.52
2018-09-10T04:23:23.810Z,59.90
2018-09-10T04:24:28.015Z,60.27
2018-09-10T04:25:32.302Z,59.72
2018-09-10T04:26:36.495Z,59.90
2018-09-10T04:27:40.633Z,59.47
2018-09-10T04:28:44.891Z,59.46
2018-09-10T04:29:49.088Z,59.75
2018-09-10T04:30:53.264Z,59.46
2018-09-10T04:31:57.426Z,59.40
2018-09-10T04:33:01.918Z,59.50
2018-09-10T04:34:06.088Z,60.06
2018-09-10T04:35:10.714Z,59.79
2018-09-10T04:36:14.995Z,60.13
2018-09-10T04:37:19.867Z,60.13
2018-09-10T04:38:24.070Z,59.70
2018-09-10T04:39:29.427Z,59.72
2018-09-10T04:40:33.624Z,60.24
2018-09-10T04:41:42.557Z,60.40
2018-09-10T04:42:46.832Z,60.01
2018-09-10T04:43:50.979Z,59.77
2018-09-10T04:44:55.168Z,60.33
2018-09-10T04:46:00.160Z,60.06
2018-09-10T04:47:04.297Z,60.25
2018-09-10T04:48:10.210Z,60.03
2018-09-10T04:49:14.724Z,60.25
2018-09-10T04:50:19.234Z,60.11
2018-09-10T04:51:23.501Z,60.33
2018-09-10T04:52:27.656Z,60.71
2018-09-10T04:53:33.512Z,60.53
2018-09-10T04:54:37.693Z,60.25
2018-09-10T04:55:41.863Z,60.33
2018-09-10T04:56:46.029Z,60.62
2018-09-10T04:57:50.253Z,60.38
2018-09-10T04:58:54.446Z,60.60
2018-09-10T04:59:58.594Z,60.69
2018-09-10T05:01:03.000Z,61.21
2018-09-10T05:02:07.401Z,61.44
2018-09-10T05:03:11.595Z,61.18
2018-09-10T05:04:15.762Z,61.15
2018-09-10T05:05:20.117Z,60.96
2018-09-10T05:06:24.344Z,61.33
2018-09-10T05:07:28.519Z,61.51
2018-09-10T05:08:32.738Z,61.15
2018-09-10T05:09:36.969Z,61.13
2018-09-10T05:10:41.283Z,61.77
2018-09-10T05:11:45.422Z,61.91
2018-09-10T05:12:49.669Z,61.51
2018-09-10T05:13:53.805Z,61.52
2018-09-10T05:14:57.991Z,62.21
2018-09-10T05:16:02.151Z,61.62
2018-09-10T05:17:06.282Z,62.02
2018-09-10T05:18:10.456Z,61.99
2018-09-10T05:19:14.638Z,61.93
2018-09-10T05:20:18.794Z,61.87
2018-09-10T05:21:23.004Z,62.30
2018-09-10T05:22:27.127Z,62.54
2018-09-10T05:23:31.547Z,62.74
2018-09-10T05:24:35.984Z,62.41
2018-09-10T05:25:40.252Z,62.57
2018-09-10T05:26:44.466Z,62.93
2018-09-10T05:27:48.666Z,62.70
2018-09-10T05:28:52.891Z,62.54
2018-09-10T05:29:57.053Z,62.65
2018-09-10T05:31:01.229Z,62.87
2018-09-10T05:32:05.456Z,63.18
2018-09-10T05:33:09.611Z,62.60
2018-09-10T05:34:13.991Z,62.55
2018-09-10T05:35:18.146Z,62.88
2018-09-10T05:36:22.410Z,62.96
2018-09-10T05:37:26.772Z,63.43
2018-09-10T05:38:31.082Z,63.13
2018-09-10T05:39:35.309Z,63.02
2018-09-10T05:40:39.540Z,62.92
2018-09-10T05:41:43.805Z,62.98
2018-09-10T05:42:47.938Z,63.45
2018-09-10T05:43:52.163Z,63.62
2018-09-10T05:44:56.348Z,63.79
2018-09-10T05:46:00.499Z,63.27
2018-09-10T05:47:04.677Z,63.54
2018-09-10T05:48:09.038Z,63.25
2018-09-10T05:49:13.311Z,63.63
2018-09-10T05:50:17.527Z,63.39
2018-09-10T05:51:21.896Z,63.91
2018-09-10T05:52:26.034Z,63.48
2018-09-10T05:53:30.182Z,63.87
2018-09-10T05:54:34.340Z,63.63
2018-09-10T05:55:38.740Z,64.14
2018-09-10T05:56:42.856Z,64.06
2018-09-10T05:57:47.187Z,64.52
2018-09-10T05:58:51.321Z,64.34
2018-09-10T05:59:55.652Z,63.95
2018-09-10T06:00:59.993Z,63.94
2018-09-10T06:02:04.190Z,64.53
2018-09-10T06:03:08.352Z,64.69
2018-09-10T06:04:12.539Z,64.79
2018-09-10T06:05:16.740Z,64.50
2018-09-10T06:06:20.934Z,64.22
2018-09-10T06:07:25.358Z,63.97
2018-09-10T06:08:29.899Z,64.79
2018-09-10T06:09:34.031Z,64.31
2018-09-10T06:10:38.318Z,64.25
2018-09-10T06:11:42.717Z,64.31
2018-09-10T06:12:47.638Z,64.11
2018-09-10T06:13:51.764Z,64.47
2018-09-10T06:14:56.340Z,64.38
2018-09-10T06:16:00.569Z,64.76
2018-09-10T06:17:04.975Z,64.64
2018-09-10T06:18:09.126Z,64.11
2018-09-10T06:19:16.503Z,64.08
2018-09-10T06:20:20.852Z,64.50
2018-09-10T06:21:25.019Z,64.02
2018-09-10T06:22:29.365Z,64.26
2018-09-10T06:23:33.608Z,64.30
2018-09-10T06:24:37.762Z,64.12
2018-09-10T06:25:41.990Z,63.76
2018-09-10T06:26:46.230Z,64.36
2018-09-10T06:27:50.630Z,64.19
2018-09-10T06:28:55.183Z,63.47
2018-09-10T06:29:59.454Z,64.13
2018-09-10T06:31:03.625Z,63.50
2018-09-10T06:32:07.826Z,63.66
2018-09-10T06:33:12.040Z,63.58
2018-09-10T06:34:16.596Z,64.33
2018-09-10T06:35:20.633Z,63.54
2018-09-10T06:36:25.438Z,64.25
2018-09-10T06:37:30.080Z,63.42
2018-09-10T06:38:34.500Z,63.97
2018-09-10T06:39:38.808Z,63.65
2018-09-10T06:40:42.963Z,63.63
2018-09-10T06:41:47.130Z,63.68
2018-09-10T06:42:51.332Z,63.51
2018-09-10T06:43:55.564Z,63.39
2018-09-10T06:44:59.721Z,63.88
2018-09-10T06:46:03.930Z,63.67
2018-09-10T06:47:08.140Z,63.56
2018-09-10T06:48:12.331Z,63.69
2018-09-10T06:49:16.550Z,63.81
2018-09-10T06:50:21.879Z,64.22
2018-09-10T06:51:26.025Z,63.72
2018-09-10T06:52:30.226Z,64.24
2018-09-10T06:53:34.591Z,63.97
2018-09-10T06:54:38.819Z,63.75
2018-09-10T06:55:42.975Z,63.86
2018-09-10T06:56:47.146Z,64.12
2018-09-10T06:57:51.308Z,64.16
2018-09-10T06:58:55.729Z,63.64
2018-09-10T06:59:59.919Z,63.84
2018-09-10T07:01:04.118Z,63.87
2018-09-10T07:02:08.447Z,63.74
2018-09-10T07:03:12.663Z,64.13
2018-09-10T07:04:16.833Z,64.75
2018-09-10T07:05:21.164Z,64.73
2018-09-10T07:06:25.390Z,64.25
2018-09-10T07:07:29.592Z,64.01
2018-09-10T07:08:33.754Z,64.57
2018-09-10T07:09:38.005Z,63.87
2018-09-10T07:10:42.255Z,63.83
2018-09-10T07:11:46.460Z,63.68
2018-09-10T07:12:50.703Z,63.74
2018-09-10T07:13:54.834Z,63.87
2018-09-10T07:14:59.039Z,64.37
2018-09-10T07:16:03.247Z,63.68
2018-09-10T07:17:07.461Z,63.79
2018-09-10T07:18:11.867Z,64.32
2018-09-10T07:19:16.209Z,64.30
2018-09-10T07:20:20.634Z,64.39
2018-09-10T07:21:24.829Z,64.01
2018-09-10T07:22:29.063Z,64.42
2018-09-10T07:23:33.443Z,63.87
2018-09-10T07:24:37.622Z,64.19
2018-09-10T07:25:41.783Z,64.19
2018-09-10T07:26:46.088Z,63.99
2018-09-10T07:27:50.274Z,64.21
2018-09-10T07:28:54.498Z,64.00
2018-09-10T07:29:58.688Z,64.25
2018-09-10T07:31:02.975Z,64.41
2018-09-10T07:32:07.214Z,63.80
2018-09-10T07:33:11.577Z,64.57
2018-09-10T07:34:15.768Z,63.74
2018-09-10T07:35:19.974Z,64.18
2018-09-10T07:36:24.239Z,64.42
2018-09-10T07:37:28.446Z,63.89
2018-09-10T07:38:32.765Z,63.93
2018-09-10T07:39:36.946Z,64.29
2018-09-10T07:40:41.559Z,63.92
2018-09-10T07:41:45.778Z,63.64
2018-09-10T07:42:50.005Z,63.86
2018-09-10T07:43:54.472Z,63.68
2018-09-10T07:44:58.568Z,63.88
2018-09-10T07:46:02.743Z,63.87
2018-09-10T07:47:06.966Z,64.13
2018-09-10T07:48:11.315Z,63.55
2018-09-10T07:49:15.726Z,64.00
2018-09-10T07:50:20.660Z,64.22
2018-09-10T07:51:24.960Z,63.18
2018-09-10T07:52:29.159Z,63.92
2018-09-10T07:53:33.672Z,64.04
2018-09-10T07:54:37.954Z,64.14
2018-09-10T07:55:42.331Z,63.77
2018-09-10T07:56:46.530Z,64.27
2018-09-10T07:57:50.744Z,63.99
2018-09-10T07:58:55.200Z,64.08
2018-09-10T07:59:59.432Z,63.67
2018-09-10T08:01:03.611Z,63.67
2018-09-10T08:02:07.837Z,64.50
2018-09-10T08:03:12.043Z,64.39
2018-09-10T08:04:16.236Z,64.02
2018-09-10T08:05:20.467Z,64.30
2018-09-10T08:06:24.626Z,64.74
2018-09-10T08:07:28.786Z,64.75
2018-09-10T08:08:32.995Z,64.68
2018-09-10T08:09:37.335Z,64.22
2018-09-10T08:10:41.503Z,64.32
2018-09-10T08:11:45.677Z,65.23
2018-09-10T08:12:49.908Z,65.08
2018-09-10T08:13:54.093Z,65.33
2018-09-10T08:14:58.461Z,65.38
2018-09-10T08:16:02.678Z,64.72
2018-09-10T08:17:06.881Z,65.52
2018-09-10T08:18:11.230Z,65.38
2018-09-10T08:19:15.424Z,65.55
2018-09-10T08:20:20.013Z,64.86
2018-09-10T08:21:24.263Z,64.92
2018-09-10T08:22:28.488Z,65.63
2018-09-10T08:23:32.727Z,65.48
2018-09-10T08:24:36.971Z,65.75
2018-09-10T08:25:41.170Z,65.58
2018-09-10T08:26:45.571Z,65.62
2018-09-10T08:27:49.738Z,65.18
2018-09-10T08:28:54.103Z,65.43
2018-09-10T08:29:58.272Z,64.85
2018-09-10T08:31:02.703Z,65.14
2018-09-10T08:32:07.004Z,65.03
2018-09-10T08:33:11.195Z,64.78
2018-09-10T08:34:15.512Z,64.80
2018-09-10T08:35:19.731Z,64.27
2018-09-10T08:36:23.971Z,64.82
2018-09-10T08:37:28.205Z,64.52
2018-09-10T08:38:32.916Z,63.78
2018-09-10T08:39:37.239Z,64.02
2018-09-10T08:40:41.427Z,64.07
2018-09-10T08:41:45.656Z,64.07
2018-09-10T08:42:49.920Z,63.40
2018-09-10T08:43:54.047Z,63.08
2018-09-10T08:44:58.314Z,62.98
2018-09-10T08:46:02.593Z,62.92
2018-09-10T08:47:06.846Z,63.59
2018-09-10T08:48:11.092Z,63.32
2018-09-10T08:49:15.514Z,63.54
2018-09-10T08:50:19.687Z,63.28
2018-09-10T08:51:23.925Z,62.67
2018-09-10T08:52:28.333Z,63.13
2018-09-10T08:53:32.600Z,62.62
2018-09-10T08:54:37.055Z,63.02
2018-09-10T08:55:41.166Z,63.21
2018-09-10T08:56:45.193Z,62.54
2018-09-10T08:57:49.419Z,62.76
2018-09-10T08:58:53.563Z,62.80
2018-09-10T08:59:57.777Z,62.29
2018-09-10T09:01:01.962Z,63.05
2018-09-10T09:02:06.635Z,62.87
2018-09-10T09:03:10.915Z,62.34
2018-09-10T13:53:23.434Z,46.93
2018-09-10T13:54:27.856Z,46.17
2018-09-10T13:55:31.970Z,46.83
2018-09-10T13:56:36.482Z,46.12
2018-09-10T13:57:40.803Z,46.41
2018-09-10T13:58:45.006Z,46.48
2018-09-10T13:59:49.278Z,46.16
2018-09-10T14:00:53.350Z,46.41
2018-09-10T14:01:57.526Z,46.07
2018-09-10T14:03:01.693Z,46.01
2018-09-10T14:04:05.897Z,46.91
2018-09-10T14:05:10.100Z,46.68
2018-09-10T14:06:14.420Z,46.82
2018-09-10T14:07:18.678Z,46.55
2018-09-10T14:08:22.827Z,46.50
2018-09-10T14:09:27.014Z,46.34
2018-09-10T14:10:31.165Z,46.02
2018-09-10T14:11:35.752Z,45.93
2018-09-10T14:12:39.908Z,45.97
2018-09-10T14:13:44.163Z,45.99
2018-09-10T14:14:48.367Z,46.41
2018-09-10T14:15:52.984Z,45.80
2018-09-10T14:16:57.260Z,46.10
2018-09-10T14:18:01.600Z,46.86
2018-09-10T14:19:05.802Z,46.69
2018-09-10T14:20:09.970Z,46.91
2018-09-10T14:21:14.154Z,46.20
2018-09-10T14:22:18.419Z,46.53
2018-09-10T14:23:22.585Z,46.70
2018-09-10T14:24:27.051Z,46.46
2018-09-10T14:25:31.234Z,46.36
2018-09-10T14:26:35.456Z,46.40
2018-09-10T14:27:39.662Z,46.43
2018-09-10T14:28:43.853Z,46.24
2018-09-10T14:29:48.087Z,46.97
2018-09-10T14:30:52.360Z,46.20
2018-09-10T14:31:56.605Z,46.50
2018-09-10T14:33:00.793Z,46.84
2018-09-10T14:34:05.392Z,47.03
2018-09-10T14:35:09.546Z,46.51
2018-09-10T14:36:13.905Z,46.17
2018-09-10T14:37:18.050Z,46.89
2018-09-10T14:38:22.216Z,46.85
2018-09-10T14:39:26.389Z,46.82
2018-09-10T14:40:30.520Z,46.67
2018-09-10T14:41:34.756Z,47.07
2018-09-10T14:42:38.942Z,46.66
2018-09-10T14:43:43.096Z,46.84
2018-09-10T14:44:47.296Z,46.28
2018-09-10T14:45:51.565Z,46.26
2018-09-10T14:46:55.742Z,46.83
2018-09-10T14:47:59.928Z,46.35
2018-09-10T14:49:04.141Z,46.32
2018-09-10T14:50:08.285Z,46.79
2018-09-10T14:51:12.505Z,46.36
2018-09-10T14:52:16.718Z,46.29
2018-09-10T14:53:20.940Z,46.34
2018-09-10T14:54:25.442Z,46.77
2018-09-10T14:55:29.635Z,46.39
2018-09-10T14:56:33.801Z,46.77
2018-09-10T14:57:37.982Z,46.38
2018-09-10T14:58:42.216Z,46.89
2018-09-10T14:59:46.415Z,46.88
2018-09-10T15:00:50.624Z,46.59
2018-09-10T15:01:54.769Z,46.77
2018-09-10T15:02:59.238Z,46.50
2018-09-10T15:04:03.435Z,46.01
2018-09-10T15:05:07.649Z,46.06
2018-09-10T15:06:11.828Z,47.00
2018-09-10T15:07:16.062Z,46.06
2018-09-10T15:08:20.443Z,45.86
2018-09-10T15:09:24.615Z,46.16
2018-09-10T15:10:28.982Z,46.10
2018-09-10T15:11:33.347Z,45.81
2018-09-10T15:12:37.698Z,46.19
2018-09-10T15:13:41.905Z,46.30
2018-09-10T15:14:46.129Z,46.86
2018-09-10T15:15:50.416Z,46.15
2018-09-10T15:16:54.551Z,46.25
2018-09-10T15:17:58.764Z,46.17
2018-09-10T15:19:03.089Z,46.31
2018-09-10T15:20:07.335Z,46.33
2018-09-10T15:21:11.705Z,47.01
2018-09-10T15:22:15.955Z,46.41
2018-09-10T15:23:20.161Z,46.40
2018-09-10T15:24:24.385Z,46.95
2018-09-10T15:25:28.556Z,46.97
2018-09-10T15:26:32.776Z,46.65
2018-09-10T15:27:37.083Z,46.50
2018-09-10T15:28:41.208Z,47.01
2018-09-10T15:29:45.399Z,47.09
2018-09-10T15:30:49.613Z,46.70
2018-09-10T15:31:53.919Z,46.67
2018-09-10T15:32:58.063Z,46.43
2018-09-10T15:34:02.259Z,46.57
2018-09-10T15:35:06.622Z,47.21
2018-09-10T15:36:10.853Z,46.42
2018-09-10T15:37:15.135Z,46.60
2018-09-10T15:38:19.348Z,47.02
2018-09-10T15:39:23.475Z,47.21
2018-09-10T15:40:27.695Z,46.87
2018-09-10T15:41:31.963Z,46.96
2018-09-10T15:42:36.111Z,47.14
2018-09-10T15:43:40.264Z,46.38
2018-09-10T15:44:44.648Z,47.14
2018-09-10T15:45:48.980Z,46.33
2018-09-10T15:46:53.124Z,46.49
2018-09-10T15:47:57.391Z,47.26
2018-09-10T15:49:01.543Z,46.59
2018-09-10T15:50:06.049Z,47.32
2018-09-10T15:51:10.395Z,46.74
2018-09-10T15:52:14.789Z,47.44
2018-09-10T15:53:18.976Z,47.62
2018-09-10T15:54:30.211Z,47.07
2018-09-10T15:55:34.610Z,47.71
2018-09-10T15:56:38.806Z,46.95
2018-09-10T15:57:42.979Z,47.12
2018-09-10T15:58:47.169Z,47.31
2018-09-10T15:59:51.445Z,47.56
2018-09-10T16:00:55.676Z,47.91
2018-09-10T16:02:00.286Z,47.95
2018-09-10T16:03:04.472Z,48.08
2018-09-10T16:04:08.654Z,47.45
2018-09-10T16:05:12.969Z,48.16
2018-09-10T16:06:17.123Z,48.03
2018-09-10T16:07:21.431Z,47.85
2018-09-10T16:08:25.496Z,48.02
2018-09-10T16:09:29.675Z,48.40
2018-09-10T16:10:33.893Z,47.69
2018-09-10T16:11:38.362Z,48.17
2018-09-10T16:12:42.563Z,48.13
2018-09-10T16:13:46.767Z,47.72
2018-09-10T16:14:51.098Z,48.15
2018-09-10T16:15:55.276Z,48.25
2018-09-10T16:16:59.545Z,48.38
2018-09-10T16:18:03.642Z,48.07
2018-09-10T16:19:07.937Z,48.22
2018-09-10T16:20:12.129Z,48.51
2018-09-10T16:21:16.352Z,48.75
2018-09-10T16:22:20.535Z,48.42
2018-09-10T16:23:24.719Z,48.44
2018-09-10T16:24:28.881Z,48.27
2018-09-10T16:25:33.067Z,48.51
2018-09-10T16:26:37.227Z,48.38
2018-09-10T16:27:41.584Z,48.74
2018-09-10T16:28:45.993Z,48.78
2018-09-10T16:29:50.199Z,48.77
2018-09-10T16:30:54.351Z,48.47
2018-09-10T16:31:58.608Z,49.01
2018-09-10T16:33:02.910Z,49.02
2018-09-10T16:34:07.112Z,48.37
2018-09-10T16:35:11.327Z,48.30
2018-09-10T16:36:15.441Z,48.26
2018-09-10T16:37:19.635Z,48.55
2018-09-10T16:38:23.843Z,49.11
2018-09-10T16:39:28.352Z,48.43
2018-09-10T16:40:32.518Z,48.99
2018-09-10T16:41:36.667Z,48.89
2018-09-10T16:42:41.072Z,48.62
2018-09-10T16:43:45.241Z,48.98
2018-09-10T16:44:49.685Z,48.60
2018-09-10T16:45:53.849Z,48.68
2018-09-10T16:46:58.096Z,49.14
2018-09-10T16:48:02.230Z,49.36
2018-09-10T16:49:06.711Z,49.43
2018-09-10T16:50:10.848Z,48.76
2018-09-10T16:51:15.120Z,48.83
2018-09-10T16:52:19.287Z,48.96
2018-09-10T16:53:23.443Z,49.65
2018-09-10T16:54:27.667Z,49.04
2018-09-10T16:55:32.275Z,49.11
2018-09-10T16:56:36.867Z,49.12
2018-09-10T16:57:41.030Z,49.18
2018-09-10T16:58:45.273Z,49.49
2018-09-10T16:59:49.415Z,49.56
2018-09-10T17:00:54.710Z,50.08
2018-09-10T17:01:58.862Z,49.57
2018-09-10T17:03:03.059Z,49.62
2018-09-10T17:04:07.194Z,49.22
2018-09-10T17:05:11.411Z,49.75
2018-09-10T17:06:15.821Z,49.71
2018-09-10T17:07:20.144Z,50.15
2018-09-10T17:08:24.306Z,49.70
2018-09-10T17:09:28.554Z,50.15
2018-09-10T17:10:32.802Z,49.42
2018-09-10T17:11:37.023Z,49.48
2018-09-10T17:12:41.239Z,50.05
2018-09-10T17:13:45.385Z,49.61
2018-09-10T17:14:49.617Z,49.50
2018-09-10T17:15:53.747Z,49.60
2018-09-10T17:16:57.989Z,49.66
2018-09-10T17:18:02.195Z,49.61
2018-09-10T17:19:06.371Z,49.58
2018-09-10T17:20:10.606Z,50.04
2018-09-10T17:21:14.810Z,49.77
2018-09-10T17:22:19.496Z,50.36
2018-09-10T17:23:23.609Z,50.40
2018-09-10T17:24:27.777Z,50.33
2018-09-10T17:25:31.971Z,49.97
2018-09-10T17:26:36.349Z,50.40
2018-09-10T17:27:40.574Z,49.92
2018-09-10T17:28:45.522Z,50.36
2018-09-10T17:29:49.730Z,50.35
2018-09-10T17:30:53.902Z,50.45
2018-09-10T17:31:58.262Z,50.27
2018-09-10T17:33:02.589Z,50.61
2018-09-10T17:34:06.807Z,50.68
2018-09-10T17:35:10.973Z,50.40
2018-09-10T17:36:15.271Z,50.91
2018-09-10T17:37:19.526Z,50.93
2018-09-10T17:38:23.732Z,50.23
2018-09-10T17:39:27.879Z,50.99
2018-09-10T17:40:32.244Z,51.07
2018-09-10T17:41:36.536Z,51.00
2018-09-10T17:42:41.002Z,50.89
2018-09-10T17:43:45.166Z,50.43
2018-09-10T17:44:49.514Z,50.66
2018-09-10T17:45:53.678Z,51.13
2018-09-10T17:46:58.156Z,50.75
2018-09-10T17:48:02.383Z,51.35
2018-09-10T17:49:06.616Z,51.25
2018-09-10T17:50:10.807Z,51.29
2018-09-10T17:51:14.953Z,51.11
2018-09-10T17:52:19.151Z,51.07
2018-09-10T17:53:23.443Z,51.21
2018-09-10T17:54:27.528Z,51.61
2018-09-10T17:55:31.800Z,51.41
2018-09-10T17:56:36.266Z,51.37
2018-09-10T17:57:40.444Z,51.32
2018-09-10T17:58:44.653Z,51.84
2018-09-10T17:59:48.858Z,51.79
2018-09-10T18:00:53.078Z,51.75
2018-09-10T18:01:57.392Z,51.31
2018-09-10T18:03:01.579Z,51.67
2018-09-10T18:04:05.774Z,51.40
2018-09-10T18:05:09.985Z,52.13
2018-09-10T18:06:14.169Z,51.57
2018-09-10T18:07:18.395Z,52.04
2018-09-10T18:08:22.544Z,52.20
2018-09-10T18:09:26.700Z,51.75
2018-09-10T18:10:30.915Z,52.39
2018-09-10T18:11:35.319Z,52.06
2018-09-10T18:12:39.523Z,52.07
2018-09-10T18:13:43.729Z,52.56
2018-09-10T18:14:47.850Z,52.18
2018-09-10T18:15:53.004Z,52.55
2018-09-10T18:16:57.163Z,52.51
2018-09-10T18:18:01.935Z,53.13
2018-09-10T18:19:06.152Z,52.88
2018-09-10T18:20:10.395Z,53.16
2018-09-10T18:21:14.600Z,53.02
2018-09-10T18:22:18.777Z,53.17
2018-09-10T18:23:22.962Z,53.21
2018-09-10T18:24:27.162Z,53.27
2018-09-10T18:25:31.370Z,53.41
2018-09-10T18:26:35.546Z,53.47
2018-09-10T18:27:39.710Z,53.29
2018-09-10T18:28:43.915Z,53.21
2018-09-10T18:29:48.126Z,53.92
2018-09-10T18:30:52.283Z,53.69
2018-09-10T18:31:56.489Z,53.49
2018-09-10T18:33:01.034Z,53.46
2018-09-10T18:34:05.199Z,53.57
2018-09-10T18:35:09.471Z,54.22
2018-09-10T18:36:13.643Z,53.98
2018-09-10T18:37:17.876Z,53.93